Time,TemperatureF,DewpointF,PressureIn,WindDirection,WindDirectionDegrees,WindSpeedMPH,WindSpeedGustMPH,Humidity,HourlyPrecipIn,Conditions,Clouds,dailyrainin,SoftwareType,DateUTC
2013-01-26 00:00:00,20.8,10.9,29.98,NNW,338,0.2,1.1,65,0.00,CLR,,0.00,WeatherDisplay:10.37,2013-01-26 05:00:00,
2013-01-26 00:01:00,20.8,10.9,29.98,NNW,338,0.5,0.5,65,0.00,CLR,,0.00,WeatherDisplay:10.37,2013-01-26 05:01:00,
2013-01-26 00:06:00,20.8,10.9,29.98,NW,315,1.1,1.1,65,0.00,CLR,,0.00,WeatherDisplay:10.37,2013-01-26 05:06:00,
2013-01-26 00:11:00,20.8,10.9,29.97,NW,315,0.5,0.5,65,0.00,CLR,,0.00,WeatherDisplay:10.37,2013-01-26 05:11:00,
2013-01-26 00:16:00,20.7,11.1,29.97,NNW,338,0.2,2.3,66,0.00,CLR,,0.00,WeatherDisplay:10.37,2013-01-26 05:16:00,
2013-01-26 00:21:00,20.7,11.1,29.96,NNW,338,1.8,2.3,66,0.00,CLR,,0.00,WeatherDisplay:10.37,2013-01-26 05:21:00,
2013-01-26 00:26:00,20.7,11.4,29.96,NNW,338,1.6,1.6,67,0.00,CLR,,0.00,WeatherDisplay:10.37,2013-01-26 05:26:00,
2013-01-26 00:31:00,20.5,11.6,29.96,North,0,1.1,1.1,68,0.00,CLR,,0.00,WeatherDisplay:10.37,2013-01-26 05:31:00,
2013-01-26 00:36:00,20.5,11.6,29.96,North,0,1.1,2.3,68,0.00,CLR,,0.00,WeatherDisplay:10.37,2013-01-26 05:36:00,
2013-01-26 00:41:00,20.5,11.6,29.96,NNW,338,0.5,0.5,68,0.00,CLR,,0.00,WeatherDisplay:10.37,2013-01-26 05:41:00,
2013-01-26 00:46:00,20.5,11.9,29.96,NNW,338,0.0,1.1,69,0.00,CLR,,0.00,WeatherDisplay:10.37,2013-01-26 05:46:00,
2013-01-26 00:51:00,20.5,12.6,29.96,WNW,292,0.5,1.1,71,0.00,CLR,,0.00,WeatherDisplay:10.37,2013-01-26 05:51:00,
2013-01-26 00:56:00,20.3,12.1,29.96,NNW,338,1.4,1.4,70,0.00,CLR,,0.00,WeatherDisplay:10.37,2013-01-26 05:56:00,
2013-01-26 01:01:00,20.1,12.5,29.96,NW,315,1.4,2.3,72,0.00,CLR,,0.00,WeatherDisplay:10.37,2013-01-26 06:01:00,
2013-01-26 01:06:00,20.1,12.8,29.96,NW,315,0.7,2.3,73,0.00,CLR,,0.00,WeatherDisplay:10.37,2013-01-26 06:06:00,
2013-01-26 01:11:00,20.1,12.5,29.95,WNW,292,1.1,2.3,72,0.00,CLR,,0.00,WeatherDisplay:10.37,2013-01-26 06:11:00,
2013-01-26 01:16:00,19.9,13.0,29.95,NNW,338,2.0,5.8,74,0.00,CLR,,0.00,WeatherDisplay:10.37,2013-01-26 06:16:00,
2013-01-26 01:21:00,19.9,13.3,29.95,NE,45,1.8,1.8,75,0.00,CLR,,0.00,WeatherDisplay:10.37,2013-01-26 06:21:00,
2013-01-26 01:26:00,19.9,13.3,29.95,NW,315,0.7,2.3,75,0.00,CLR,,0.00,WeatherDisplay:10.37,2013-01-26 06:26:00,
2013-01-26 01:31:00,19.9,13.0,29.95,NNW,338,2.2,2.2,74,0.00,CLR,,0.00,WeatherDisplay:10.37,2013-01-26 06:31:00,
2013-01-26 01:36:00,19.9,13.9,29.95,NW,315,0.7,2.3,77,0.00,CLR,,0.00,WeatherDisplay:10.37,2013-01-26 06:36:00,
2013-01-26 01:41:00,19.9,13.9,29.95,NNW,338,0.9,2.3,77,0.00,CLR,,0.00,WeatherDisplay:10.37,2013-01-26 06:41:00,
2013-01-26 01:46:00,19.8,14.3,29.94,NW,315,2.0,2.3,79,0.00,CLR,,0.00,WeatherDisplay:10.37,2013-01-26 06:46:00,
2013-01-26 01:51:00,19.8,14.0,29.94,WNW,292,1.1,2.3,78,0.00,CLR,,0.00,WeatherDisplay:10.37,2013-01-26 06:51:00,
2013-01-26 01:56:00,19.6,13.5,29.94,North,0,1.1,2.3,77,0.00,CLR,,0.00,WeatherDisplay:10.37,2013-01-26 06:56:00,
2013-01-26 02:01:00,19.4,13.7,29.93,North,0,3.6,4.6,78,0.00,CLR,,0.00,WeatherDisplay:10.37,2013-01-26 07:01:00,
2013-01-26 02:06:00,19.4,13.7,29.93,WNW,292,2.4,3.5,78,0.00,CLR,,0.00,WeatherDisplay:10.37,2013-01-26 07:06:00,
2013-01-26 02:11:00,19.2,12.9,29.93,NW,315,0.9,1.1,76,0.00,CLR,,0.00,WeatherDisplay:10.37,2013-01-26 07:11:00,
2013-01-26 02:16:00,19.2,13.2,29.93,NW,315,4.7,4.7,77,0.00,CLR,,0.00,WeatherDisplay:10.37,2013-01-26 07:16:00,
2013-01-26 02:21:00,19.2,13.5,29.93,NW,315,1.1,2.3,78,0.00,CLR,,0.00,WeatherDisplay:10.37,2013-01-26 07:21:00,
2013-01-26 02:26:00,19.2,13.8,29.93,NW,315,1.6,3.5,79,0.00,CLR,,0.00,WeatherDisplay:10.37,2013-01-26 07:26:00,
2013-01-26 02:31:00,19.2,13.5,29.93,WNW,292,1.8,3.5,78,0.00,CLR,,0.00,WeatherDisplay:10.37,2013-01-26 07:31:00,
2013-01-26 02:36:00,19.4,13.7,29.93,West,270,1.8,1.8,78,0.00,CLR,,0.00,WeatherDisplay:10.37,2013-01-26 07:36:00,
2013-01-26 02:41:00,19.4,13.7,29.92,NW,315,1.4,2.3,78,0.00,CLR,,0.00,WeatherDisplay:10.37,2013-01-26 07:41:00,
2013-01-26 02:46:00,19.4,13.4,29.92,WNW,292,0.5,1.1,77,0.00,CLR,,0.00,WeatherDisplay:10.37,2013-01-26 07:46:00,
2013-01-26 02:51:00,19.6,13.8,29.92,North,0,0.2,2.3,78,0.00,CLR,,0.00,WeatherDisplay:10.37,2013-01-26 07:51:00,
2013-01-26 02:56:00,19.6,13.8,29.92,NE,45,0.5,1.1,78,0.00,CLR,,0.00,WeatherDisplay:10.37,2013-01-26 07:56:00,
2013-01-26 03:01:00,19.6,13.8,29.92,North,0,0.5,4.6,78,0.00,CLR,,0.00,WeatherDisplay:10.37,2013-01-26 08:01:00,
2013-01-26 03:06:00,19.6,13.5,29.92,NW,315,0.5,2.3,77,0.00,CLR,,0.00,WeatherDisplay:10.37,2013-01-26 08:06:00,
2013-01-26 03:11:00,19.8,13.7,29.92,NW,315,0.0,1.1,77,0.00,CLR,,0.00,WeatherDisplay:10.37,2013-01-26 08:11:00,
2013-01-26 03:16:00,19.8,13.4,29.91,NW,315,0.0,0.0,76,0.00,CLR,,0.00,WeatherDisplay:10.37,2013-01-26 08:16:00,
2013-01-26 03:21:00,19.8,13.4,29.91,NW,315,0.7,1.1,76,0.00,CLR,,0.00,WeatherDisplay:10.37,2013-01-26 08:21:00,
2013-01-26 03:26:00,19.9,13.9,29.91,NW,315,0.5,1.1,77,0.00,CLR,,0.00,WeatherDisplay:10.37,2013-01-26 08:26:00,
2013-01-26 03:31:00,20.1,13.8,29.91,NW,315,0.0,1.1,76,0.00,CLR,,0.00,WeatherDisplay:10.37,2013-01-26 08:31:00,
2013-01-26 03:36:00,20.1,14.1,29.91,NW,315,0.5,1.1,77,0.00,CLR,,0.00,WeatherDisplay:10.37,2013-01-26 08:36:00,
2013-01-26 03:41:00,20.3,13.6,29.91,NW,315,0.0,0.0,75,0.00,CLR,,0.00,WeatherDisplay:10.37,2013-01-26 08:41:00,
2013-01-26 03:46:00,20.1,13.8,29.91,West,270,0.0,1.1,76,0.00,CLR,,0.00,WeatherDisplay:10.37,2013-01-26 08:46:00,
2013-01-26 03:51:00,20.1,13.8,29.91,NNW,338,0.2,1.1,76,0.00,CLR,,0.00,WeatherDisplay:10.37,2013-01-26 08:51:00,
2013-01-26 03:56:00,19.9,13.6,29.91,NNW,338,0.9,1.1,76,0.00,CLR,,0.00,WeatherDisplay:10.37,2013-01-26 08:56:00,
2013-01-26 04:01:00,19.9,13.3,29.91,NW,315,0.9,1.1,75,0.00,CLR,,0.00,WeatherDisplay:10.37,2013-01-26 09:01:00,
2013-01-26 04:06:00,19.9,13.6,29.91,WNW,292,0.5,1.1,76,0.00,CLR,,0.00,WeatherDisplay:10.37,2013-01-26 09:06:00,
2013-01-26 04:11:00,19.8,13.4,29.90,West,270,0.5,0.5,76,0.00,CLR,,0.00,WeatherDisplay:10.37,2013-01-26 09:11:00,
2013-01-26 04:16:00,19.8,13.4,29.90,WNW,292,0.5,1.1,76,0.00,CLR,,0.00,WeatherDisplay:10.37,2013-01-26 09:16:00,
2013-01-26 04:21:00,19.8,13.4,29.91,NW,315,1.1,1.1,76,0.00,CLR,,0.00,WeatherDisplay:10.37,2013-01-26 09:21:00,
2013-01-26 04:26:00,19.8,13.4,29.90,NW,315,0.0,0.0,76,0.00,CLR,,0.00,WeatherDisplay:10.37,2013-01-26 09:26:00,
2013-01-26 04:31:00,19.8,13.7,29.90,West,270,0.0,4.6,77,0.00,CLR,,0.00,WeatherDisplay:10.37,2013-01-26 09:31:00,
2013-01-26 04:36:00,19.6,13.2,29.90,NW,315,0.0,0.0,76,0.00,CLR,,0.00,WeatherDisplay:10.37,2013-01-26 09:36:00,
2013-01-26 04:41:00,19.6,13.2,29.90,West,270,0.5,1.1,76,0.00,CLR,,0.00,WeatherDisplay:10.37,2013-01-26 09:41:00,
2013-01-26 04:46:00,19.6,13.2,29.90,WSW,248,0.0,1.1,76,0.00,CLR,,0.00,WeatherDisplay:10.37,2013-01-26 09:46:00,
2013-01-26 04:51:00,19.4,12.8,29.91,West,270,1.4,2.3,75,0.00,CLR,,0.00,WeatherDisplay:10.37,2013-01-26 09:51:00,
2013-01-26 04:56:00,19.2,12.6,29.91,West,270,0.2,0.2,75,0.00,CLR,,0.00,WeatherDisplay:10.37,2013-01-26 09:56:00,
2013-01-26 05:01:00,19.0,12.4,29.91,WNW,292,0.0,1.1,75,0.00,CLR,,0.00,WeatherDisplay:10.37,2013-01-26 10:01:00,
2013-01-26 05:06:00,18.7,12.1,29.91,NW,315,0.5,0.5,75,0.00,CLR,,0.00,WeatherDisplay:10.37,2013-01-26 10:06:00,
2013-01-26 05:11:00,18.5,11.6,29.91,SW,225,0.0,0.0,74,0.00,CLR,,0.00,WeatherDisplay:10.37,2013-01-26 10:11:00,
2013-01-26 05:16:00,18.3,11.7,29.92,NW,315,0.0,0.0,75,0.00,CLR,,0.00,WeatherDisplay:10.37,2013-01-26 10:16:00,
2013-01-26 05:21:00,18.0,11.4,29.91,WSW,248,0.5,1.1,75,0.00,CLR,,0.00,WeatherDisplay:10.37,2013-01-26 10:21:00,
2013-01-26 05:26:00,17.6,11.0,29.92,WNW,292,0.5,1.1,75,0.00,CLR,,0.00,WeatherDisplay:10.37,2013-01-26 10:26:00,
2013-01-26 05:31:00,17.4,11.1,29.92,WNW,292,0.0,0.0,76,0.00,CLR,,0.00,WeatherDisplay:10.37,2013-01-26 10:31:00,
2013-01-26 05:36:00,17.2,10.7,29.92,WNW,292,1.4,1.4,75,0.00,CLR,,0.00,WeatherDisplay:10.37,2013-01-26 10:36:00,
2013-01-26 05:41:00,17.1,10.8,29.92,West,270,0.5,0.5,76,0.00,CLR,,0.00,WeatherDisplay:10.37,2013-01-26 10:41:00,
2013-01-26 05:46:00,16.9,10.3,29.92,West,270,0.0,1.1,75,0.00,CLR,,0.00,WeatherDisplay:10.37,2013-01-26 10:46:00,
2013-01-26 05:51:00,16.5,10.0,29.92,North,0,1.4,2.3,75,0.00,CLR,,0.00,WeatherDisplay:10.37,2013-01-26 10:51:00,
2013-01-26 05:56:00,16.3,9.8,29.92,WNW,292,1.1,1.1,75,0.00,CLR,,0.00,WeatherDisplay:10.37,2013-01-26 10:56:00,
2013-01-26 06:01:00,16.2,9.6,29.92,NW,315,0.5,0.5,75,0.00,CLR,,0.00,WeatherDisplay:10.37,2013-01-26 11:01:00,
2013-01-26 06:06:00,16.2,9.9,29.92,NW,315,0.0,0.0,76,0.00,CLR,,0.00,WeatherDisplay:10.37,2013-01-26 11:06:00,
2013-01-26 06:11:00,15.8,9.6,29.93,NW,315,0.5,1.1,76,0.00,CLR,,0.00,WeatherDisplay:10.37,2013-01-26 11:11:00,
2013-01-26 06:16:00,15.8,9.9,29.93,WNW,292,0.5,0.5,77,0.00,CLR,,0.00,WeatherDisplay:10.37,2013-01-26 11:16:00,
2013-01-26 06:21:00,15.6,10.0,29.92,SSW,202,1.1,2.3,78,0.00,CLR,,0.00,WeatherDisplay:10.37,2013-01-26 11:21:00,
2013-01-26 06:26:00,15.6,10.0,29.93,WNW,292,0.5,1.1,78,0.00,CLR,,0.00,WeatherDisplay:10.37,2013-01-26 11:26:00,
2013-01-26 06:31:00,15.4,9.5,29.92,West,270,0.0,1.1,77,0.00,CLR,,0.00,WeatherDisplay:10.37,2013-01-26 11:31:00,
2013-01-26 06:36:00,15.6,10.3,29.93,NNW,338,0.5,2.3,79,0.00,CLR,,0.00,WeatherDisplay:10.37,2013-01-26 11:36:00,
2013-01-26 06:41:00,15.4,9.8,29.93,WNW,292,0.0,1.1,78,0.00,CLR,,0.00,WeatherDisplay:10.37,2013-01-26 11:41:00,
2013-01-26 06:46:00,15.3,9.3,29.93,NNW,338,0.2,1.1,77,0.00,CLR,,0.00,WeatherDisplay:10.37,2013-01-26 11:46:00,
2013-01-26 06:51:00,15.1,9.2,29.93,SW,225,1.6,2.3,77,0.00,CLR,,0.00,WeatherDisplay:10.37,2013-01-26 11:51:00,
2013-01-26 06:56:00,14.9,9.0,29.93,NW,315,0.7,2.3,77,0.00,CLR,,0.00,WeatherDisplay:10.37,2013-01-26 11:56:00,
2013-01-26 07:01:00,14.7,8.8,29.93,NW,315,0.0,3.5,77,0.00,CLR,,0.00,WeatherDisplay:10.37,2013-01-26 12:01:00,
2013-01-26 07:06:00,14.9,9.3,29.93,SW,225,0.0,1.1,78,0.00,CLR,,0.00,WeatherDisplay:10.37,2013-01-26 12:06:00,
2013-01-26 07:11:00,14.9,9.3,29.93,WSW,248,0.2,1.1,78,0.00,CLR,,0.00,WeatherDisplay:10.37,2013-01-26 12:11:00,
2013-01-26 07:16:00,14.9,9.3,29.93,NNW,338,0.2,1.1,78,0.00,CLR,,0.00,WeatherDisplay:10.37,2013-01-26 12:16:00,
2013-01-26 07:21:00,15.1,9.5,29.93,NW,315,0.0,1.1,78,0.00,CLR,,0.00,WeatherDisplay:10.37,2013-01-26 12:21:00,
2013-01-26 07:26:00,14.9,9.3,29.93,NW,315,1.8,1.8,78,0.00,CLR,,0.00,WeatherDisplay:10.37,2013-01-26 12:26:00,
2013-01-26 07:31:00,15.1,9.5,29.93,West,270,3.8,3.8,78,0.00,CLR,,0.00,WeatherDisplay:10.37,2013-01-26 12:31:00,
2013-01-26 07:36:00,15.3,9.9,29.93,NNW,338,0.2,2.3,79,0.00,CLR,,0.00,WeatherDisplay:10.37,2013-01-26 12:36:00,
2013-01-26 07:41:00,15.4,9.8,29.94,NNW,338,0.5,2.3,78,0.00,CLR,,0.00,WeatherDisplay:10.37,2013-01-26 12:41:00,
2013-01-26 07:46:00,15.6,10.3,29.94,West,270,0.2,3.5,79,0.00,CLR,,0.00,WeatherDisplay:10.37,2013-01-26 12:46:00,
2013-01-26 07:51:00,16.0,10.6,29.94,NNW,338,1.4,1.4,79,0.00,CLR,,0.00,WeatherDisplay:10.37,2013-01-26 12:51:00,
2013-01-26 07:56:00,16.5,11.1,29.94,SW,225,0.5,1.1,79,0.00,CLR,,0.00,WeatherDisplay:10.37,2013-01-26 12:56:00,
2013-01-26 08:01:00,16.9,11.5,29.94,NNE,22,1.8,3.5,79,0.00,CLR,,0.00,WeatherDisplay:10.37,2013-01-26 13:01:00,
2013-01-26 08:06:00,17.6,11.9,29.94,WNW,292,1.4,2.3,78,0.00,CLR,,0.00,WeatherDisplay:10.37,2013-01-26 13:06:00,
2013-01-26 08:11:00,18.0,12.3,29.94,WNW,292,0.9,3.5,78,0.00,CLR,,0.00,WeatherDisplay:10.37,2013-01-26 13:11:00,
2013-01-26 08:16:00,18.3,12.3,29.95,NW,315,0.7,3.5,77,0.00,CLR,,0.00,WeatherDisplay:10.37,2013-01-26 13:16:00,
2013-01-26 08:21:00,18.5,12.2,29.95,WNW,292,0.2,1.1,76,0.00,CLR,,0.00,WeatherDisplay:10.37,2013-01-26 13:21:00,
2013-01-26 08:26:00,19.0,12.7,29.95,West,270,0.9,1.1,76,0.00,CLR,,0.00,WeatherDisplay:10.37,2013-01-26 13:26:00,
2013-01-26 08:31:00,19.0,12.4,29.95,NW,315,0.5,2.3,75,0.00,CLR,,0.00,WeatherDisplay:10.37,2013-01-26 13:31:00,
2013-01-26 08:36:00,19.4,12.5,29.95,WNW,292,0.0,1.1,74,0.00,CLR,,0.00,WeatherDisplay:10.37,2013-01-26 13:36:00,
2013-01-26 08:41:00,19.6,12.6,29.95,NW,315,3.1,3.5,74,0.00,CLR,,0.00,WeatherDisplay:10.37,2013-01-26 13:41:00,
2013-01-26 08:46:00,19.8,13.1,29.95,WNW,292,1.6,2.3,75,0.00,CLR,,0.00,WeatherDisplay:10.37,2013-01-26 13:46:00,
2013-01-26 08:51:00,19.9,13.0,29.95,North,0,1.8,1.8,74,0.00,CLR,,0.00,WeatherDisplay:10.37,2013-01-26 13:51:00,
2013-01-26 08:57:00,20.1,12.8,29.95,NNW,338,1.1,1.1,73,0.00,CLR,,0.00,WeatherDisplay:10.37,2013-01-26 13:57:00,
2013-01-26 09:02:00,20.5,12.9,29.95,NNW,338,4.9,4.9,72,0.00,CLR,,0.00,WeatherDisplay:10.37,2013-01-26 14:02:00,
2013-01-26 09:07:00,20.7,13.1,29.95,WNW,292,1.1,4.6,72,0.00,CLR,,0.00,WeatherDisplay:10.37,2013-01-26 14:07:00,
2013-01-26 09:12:00,20.5,12.6,29.95,NW,315,2.6,2.6,71,0.00,CLR,,0.00,WeatherDisplay:10.37,2013-01-26 14:12:00,
2013-01-26 09:17:00,20.5,12.6,29.95,NW,315,0.5,1.1,71,0.00,CLR,,0.00,WeatherDisplay:10.37,2013-01-26 14:17:00,
2013-01-26 09:22:00,20.5,12.6,29.95,NW,315,0.5,0.5,71,0.00,CLR,,0.00,WeatherDisplay:10.37,2013-01-26 14:22:00,
2013-01-26 09:27:00,20.7,13.1,29.95,NW,315,0.5,0.5,72,0.00,CLR,,0.00,WeatherDisplay:10.37,2013-01-26 14:27:00,
2013-01-26 09:32:00,21.2,12.9,29.95,NW,315,0.5,0.0,70,0.00,CLR,,0.00,WeatherDisplay:10.37,2013-01-26 14:32:00,
2013-01-26 09:37:00,21.4,13.1,29.95,NNE,22,1.8,2.3,70,0.00,CLR,,0.00,WeatherDisplay:10.37,2013-01-26 14:37:00,
2013-01-26 09:42:00,21.6,13.3,29.95,NW,315,3.8,10.4,70,0.00,CLR,,0.00,WeatherDisplay:10.37,2013-01-26 14:42:00,
2013-01-26 09:47:00,22.1,13.8,29.95,WNW,292,3.3,4.6,70,0.00,CLR,,0.00,WeatherDisplay:10.37,2013-01-26 14:47:00,
2013-01-26 09:52:00,22.3,13.6,29.95,NW,315,7.4,10.4,69,0.00,CLR,,0.00,WeatherDisplay:10.37,2013-01-26 14:52:00,
2013-01-26 09:57:00,22.3,13.6,29.96,NNW,338,2.6,8.1,69,0.00,CLR,,0.00,WeatherDisplay:10.37,2013-01-26 14:57:00,
2013-01-26 10:02:00,23.0,14.3,29.96,WNW,292,2.9,4.6,69,0.00,CLR,,0.00,WeatherDisplay:10.37,2013-01-26 15:02:00,
2013-01-26 10:07:00,23.4,14.7,29.96,WSW,248,1.6,4.6,69,0.00,CLR,,0.00,WeatherDisplay:10.37,2013-01-26 15:07:00,
2013-01-26 10:12:00,23.7,14.7,29.96,NW,315,2.4,2.4,68,0.00,CLR,,0.00,WeatherDisplay:10.37,2013-01-26 15:12:00,
2013-01-26 10:17:00,24.1,14.7,29.96,NW,315,1.1,1.1,67,0.00,CLR,,0.00,WeatherDisplay:10.37,2013-01-26 15:17:00,
2013-01-26 10:22:00,24.4,14.7,29.96,WNW,292,7.4,8.1,66,0.00,CLR,,0.00,WeatherDisplay:10.37,2013-01-26 15:22:00,
2013-01-26 10:27:00,24.1,14.0,29.96,NNW,338,6.9,6.9,65,0.00,CLR,,0.00,WeatherDisplay:10.37,2013-01-26 15:27:00,
2013-01-26 10:32:00,24.1,14.4,29.97,NNW,338,1.4,3.5,66,0.00,CLR,,0.00,WeatherDisplay:10.37,2013-01-26 15:32:00,
2013-01-26 10:37:00,23.7,14.0,29.97,NW,315,1.1,1.1,66,0.00,CLR,,0.00,WeatherDisplay:10.37,2013-01-26 15:37:00,
2013-01-26 10:42:00,23.9,14.2,29.96,WNW,292,1.1,4.6,66,0.00,CLR,,0.00,WeatherDisplay:10.37,2013-01-26 15:42:00,
2013-01-26 10:47:00,24.1,14.4,29.97,WNW,292,1.8,2.3,66,0.00,CLR,,0.00,WeatherDisplay:10.37,2013-01-26 15:47:00,
2013-01-26 10:52:00,24.4,14.0,29.96,NNW,338,8.3,8.3,64,0.00,CLR,,0.00,WeatherDisplay:10.37,2013-01-26 15:52:00,
2013-01-26 10:57:00,24.1,14.0,29.96,WNW,292,6.9,6.9,65,0.00,CLR,,0.00,WeatherDisplay:10.37,2013-01-26 15:57:00,
2013-01-26 11:02:00,23.9,13.8,29.96,NW,315,5.6,5.8,65,0.00,CLR,,0.00,WeatherDisplay:10.37,2013-01-26 16:02:00,
2013-01-26 11:07:00,24.4,14.0,29.96,NW,315,7.6,8.1,64,0.00,CLR,,0.00,WeatherDisplay:10.37,2013-01-26 16:07:00,
2013-01-26 11:12:00,24.4,13.6,29.95,NW,315,7.6,8.1,63,0.00,CLR,,0.00,WeatherDisplay:10.37,2013-01-26 16:12:00,
2013-01-26 11:17:00,24.8,14.3,29.95,NW,315,7.6,8.1,64,0.00,CLR,,0.00,WeatherDisplay:10.37,2013-01-26 16:17:00,
2013-01-26 11:22:00,24.8,13.6,29.95,NW,315,7.6,8.1,62,0.00,CLR,,0.00,WeatherDisplay:10.37,2013-01-26 16:22:00,
2013-01-26 11:27:00,24.6,13.4,29.95,NW,315,7.6,8.1,62,0.00,CLR,,0.00,WeatherDisplay:10.37,2013-01-26 16:27:00,
2013-01-26 11:32:00,24.6,13.4,29.94,NW,315,7.6,8.1,62,0.00,CLR,,0.00,WeatherDisplay:10.37,2013-01-26 16:32:00,
2013-01-26 11:37:00,24.4,12.9,29.94,NW,315,7.6,8.1,61,0.00,CLR,,0.00,WeatherDisplay:10.37,2013-01-26 16:37:00,
2013-01-26 11:42:00,24.8,14.0,29.94,NW,315,7.6,8.1,63,0.00,CLR,,0.00,WeatherDisplay:10.37,2013-01-26 16:42:00,
2013-01-26 11:47:00,25.2,14.3,29.94,NW,315,7.6,8.1,63,0.00,CLR,,0.00,WeatherDisplay:10.37,2013-01-26 16:47:00,
2013-01-26 11:52:00,25.3,13.8,29.94,NW,315,7.6,8.1,61,0.00,CLR,,0.00,WeatherDisplay:10.37,2013-01-26 16:52:00,
2013-01-26 11:57:00,25.0,13.8,29.94,NW,315,7.6,8.1,62,0.00,CLR,,0.00,WeatherDisplay:10.37,2013-01-26 16:57:00,
2013-01-26 12:02:00,25.2,14.0,29.94,NW,315,7.6,8.1,62,0.00,CLR,,0.00,WeatherDisplay:10.37,2013-01-26 17:02:00,
2013-01-26 12:07:00,25.5,13.9,29.94,NW,315,7.6,8.1,61,0.00,CLR,,0.00,WeatherDisplay:10.37,2013-01-26 17:07:00,
2013-01-26 12:12:00,25.7,14.1,29.93,NW,315,7.6,8.1,61,0.00,CLR,,0.00,WeatherDisplay:10.37,2013-01-26 17:12:00,
2013-01-26 12:17:00,26.1,14.1,29.93,NW,315,7.6,8.1,60,0.00,CLR,,0.00,WeatherDisplay:10.37,2013-01-26 17:17:00,
2013-01-26 12:22:00,26.2,14.2,29.93,NW,315,7.6,8.1,60,0.00,CLR,,0.00,WeatherDisplay:10.37,2013-01-26 17:22:00,
2013-01-26 12:27:00,26.2,13.1,29.94,NW,315,7.4,8.1,57,0.00,CLR,,0.00,WeatherDisplay:10.37,2013-01-26 17:27:00,
2013-01-26 12:32:00,26.2,13.1,29.93,NNW,338,9.9,10.4,57,0.00,CLR,,0.00,WeatherDisplay:10.37,2013-01-26 17:32:00,
2013-01-26 12:37:00,26.2,12.7,29.94,NNE,22,2.2,4.6,56,0.00,CLR,,0.00,WeatherDisplay:10.37,2013-01-26 17:37:00,
2013-01-26 12:42:00,26.1,12.5,29.94,WNW,292,4.7,4.7,56,0.00,CLR,,0.00,WeatherDisplay:10.37,2013-01-26 17:42:00,
2013-01-26 12:47:00,26.2,13.1,29.94,North,0,1.4,1.4,57,0.00,CLR,,0.00,WeatherDisplay:10.37,2013-01-26 17:47:00,
2013-01-26 12:52:00,26.6,13.0,29.93,WNW,292,4.3,4.6,56,0.01,RA,,0.01,WeatherDisplay:10.37,2013-01-26 17:52:00,
2013-01-26 12:57:00,26.6,12.2,29.93,WNW,292,4.3,4.6,54,0.01,RA,,0.01,WeatherDisplay:10.37,2013-01-26 17:57:00,
2013-01-26 13:02:00,26.4,12.4,29.93,WNW,292,4.3,4.6,55,0.01,,,0.01,WeatherDisplay:10.37,2013-01-26 18:02:00,
2013-01-26 13:07:00,26.4,12.4,29.93,NNW,338,5.4,5.8,55,0.01,CLR,,0.01,WeatherDisplay:10.37,2013-01-26 18:07:00,
2013-01-26 13:12:00,26.4,12.0,29.93,NNW,338,1.8,2.3,54,0.01,CLR,,0.01,WeatherDisplay:10.37,2013-01-26 18:12:00,
2013-01-26 13:17:00,26.2,11.8,29.93,NNW,338,1.8,2.3,54,0.01,CLR,,0.01,WeatherDisplay:10.37,2013-01-26 18:17:00,
2013-01-26 13:22:00,26.4,12.0,29.93,NNW,338,1.8,2.3,54,0.01,CLR,,0.01,WeatherDisplay:10.37,2013-01-26 18:22:00,
2013-01-26 13:27:00,26.8,12.8,29.93,SW,225,0.5,2.3,55,0.01,CLR,,0.01,WeatherDisplay:10.37,2013-01-26 18:27:00,
2013-01-26 13:32:00,27.0,12.1,29.93,NNE,22,1.4,1.4,53,0.01,CLR,,0.01,WeatherDisplay:10.37,2013-01-26 18:32:00,
2013-01-26 13:37:00,27.0,11.7,29.93,NW,315,3.3,4.6,52,0.01,CLR,,0.01,WeatherDisplay:10.37,2013-01-26 18:37:00,
2013-01-26 13:42:00,27.0,11.7,29.93,NW,315,2.2,3.5,52,0.01,CLR,,0.01,WeatherDisplay:10.37,2013-01-26 18:42:00,
2013-01-26 13:47:00,27.1,11.8,29.93,ENE,68,0.5,5.8,52,0.01,CLR,,0.01,WeatherDisplay:10.37,2013-01-26 18:47:00,
2013-01-26 13:52:00,27.3,12.4,29.94,North,0,1.8,2.3,53,0.00,CLR,,0.01,WeatherDisplay:10.37,2013-01-26 18:52:00,
2013-01-26 13:57:00,27.5,12.6,29.94,North,0,1.8,2.3,53,0.00,CLR,,0.01,WeatherDisplay:10.37,2013-01-26 18:57:00,
2013-01-26 14:02:00,27.7,11.9,29.94,NNW,338,4.3,5.8,51,0.00,CLR,,0.01,WeatherDisplay:10.37,2013-01-26 19:02:00,
2013-01-26 14:07:00,27.3,12.0,29.94,North,0,3.3,3.5,52,0.00,CLR,,0.01,WeatherDisplay:10.37,2013-01-26 19:07:00,
2013-01-26 14:12:00,27.1,11.8,29.94,NNW,338,2.4,3.5,52,0.00,CLR,,0.01,WeatherDisplay:10.37,2013-01-26 19:12:00,
2013-01-26 14:17:00,27.1,10.9,29.94,West,270,0.5,1.1,50,0.00,CLR,,0.01,WeatherDisplay:10.37,2013-01-26 19:17:00,
2013-01-26 14:22:00,27.0,11.2,29.94,NW,315,4.5,4.6,51,0.00,CLR,,0.01,WeatherDisplay:10.37,2013-01-26 19:22:00,
2013-01-26 14:27:00,27.0,11.7,29.94,West,270,1.1,1.6,52,0.00,CLR,,0.01,WeatherDisplay:10.37,2013-01-26 19:27:00,
2013-01-26 14:32:00,27.0,10.3,29.94,NNW,338,3.3,3.5,49,0.00,CLR,,0.01,WeatherDisplay:10.37,2013-01-26 19:32:00,
2013-01-26 14:37:00,26.6,9.5,29.94,WNW,292,4.5,4.6,48,0.00,CLR,,0.01,WeatherDisplay:10.37,2013-01-26 19:37:00,
2013-01-26 14:42:00,26.4,10.3,29.94,WNW,292,4.5,4.6,50,0.00,CLR,,0.01,WeatherDisplay:10.37,2013-01-26 19:42:00,
2013-01-26 14:47:00,26.6,10.4,29.94,WNW,292,4.5,4.6,50,0.00,CLR,,0.01,WeatherDisplay:10.37,2013-01-26 19:47:00,
2013-01-26 14:52:00,26.6,9.5,29.94,NNW,338,3.3,4.6,48,0.00,CLR,,0.01,WeatherDisplay:10.37,2013-01-26 19:52:00,
2013-01-26 14:57:00,26.6,9.5,29.95,North,0,2.4,2.4,48,0.00,CLR,,0.01,WeatherDisplay:10.37,2013-01-26 19:57:00,
2013-01-26 15:02:00,26.2,9.2,29.95,North,0,2.2,2.3,48,0.00,CLR,,0.01,WeatherDisplay:10.37,2013-01-26 20:02:00,
2013-01-26 15:07:00,26.2,9.6,29.95,North,0,2.2,2.3,49,0.00,CLR,,0.01,WeatherDisplay:10.37,2013-01-26 20:07:00,
2013-01-26 15:12:00,26.2,9.6,29.95,NW,315,2.2,2.3,49,0.00,CLR,,0.01,WeatherDisplay:10.37,2013-01-26 20:12:00,
2013-01-26 15:17:00,26.1,9.5,29.95,NW,315,2.4,2.4,49,0.00,CLR,,0.01,WeatherDisplay:10.37,2013-01-26 20:17:00,
2013-01-26 15:22:00,25.9,8.9,29.95,NNW,338,1.6,3.5,48,0.00,CLR,,0.01,WeatherDisplay:10.37,2013-01-26 20:22:00,
2013-01-26 15:27:00,25.7,8.7,29.95,NW,315,4.7,5.8,48,0.00,CLR,,0.01,WeatherDisplay:10.37,2013-01-26 20:27:00,
2013-01-26 15:32:00,25.5,9.0,29.96,WNW,292,1.4,1.4,49,0.00,CLR,,0.01,WeatherDisplay:10.37,2013-01-26 20:32:00,
2013-01-26 15:37:00,25.5,8.5,29.97,WNW,292,1.1,2.3,48,0.00,CLR,,0.01,WeatherDisplay:10.37,2013-01-26 20:37:00,
2013-01-26 15:42:00,25.3,8.4,29.97,NNW,338,2.4,4.6,48,0.00,CLR,,0.01,WeatherDisplay:10.37,2013-01-26 20:42:00,
2013-01-26 15:47:00,25.3,8.4,29.97,WNW,292,2.4,5.8,48,0.00,CLR,,0.01,WeatherDisplay:10.37,2013-01-26 20:47:00,
2013-01-26 15:52:00,25.2,8.2,29.97,NNW,338,0.7,2.3,48,0.00,CLR,,0.01,WeatherDisplay:10.37,2013-01-26 20:52:00,
2013-01-26 15:57:00,25.0,8.0,29.97,NW,315,1.4,4.6,48,0.00,CLR,,0.01,WeatherDisplay:10.37,2013-01-26 20:57:00,
2013-01-26 16:02:00,24.8,7.9,29.98,WNW,292,2.6,3.5,48,0.00,CLR,,0.01,WeatherDisplay:10.37,2013-01-26 21:02:00,
2013-01-26 16:07:00,24.8,8.3,29.98,West,270,0.0,0.0,49,0.00,CLR,,0.01,WeatherDisplay:10.37,2013-01-26 21:07:00,
2013-01-26 16:12:00,24.6,8.2,29.98,North,0,0.9,0.9,49,0.00,CLR,,0.01,WeatherDisplay:10.37,2013-01-26 21:12:00,
2013-01-26 16:17:00,24.4,7.5,29.98,NW,315,4.0,6.9,48,0.00,CLR,,0.01,WeatherDisplay:10.37,2013-01-26 21:17:00,
2013-01-26 16:22:00,24.3,7.4,29.98,WNW,292,1.4,2.3,48,0.00,CLR,,0.01,WeatherDisplay:10.37,2013-01-26 21:22:00,
2013-01-26 16:27:00,24.1,7.2,29.98,West,270,2.4,2.4,48,0.00,CLR,,0.01,WeatherDisplay:10.37,2013-01-26 21:27:00,
2013-01-26 16:32:00,24.1,7.7,29.99,NW,315,1.1,2.3,49,0.00,CLR,,0.01,WeatherDisplay:10.37,2013-01-26 21:32:00,
2013-01-26 16:37:00,23.9,7.5,29.99,NNW,338,0.7,1.1,49,0.00,CLR,,0.01,WeatherDisplay:10.37,2013-01-26 21:37:00,
2013-01-26 16:42:00,23.7,6.9,29.99,WSW,248,0.5,2.3,48,0.00,CLR,,0.01,WeatherDisplay:10.37,2013-01-26 21:42:00,
2013-01-26 16:47:00,23.5,7.2,29.99,NNW,338,1.4,1.4,49,0.00,CLR,,0.01,WeatherDisplay:10.37,2013-01-26 21:47:00,
2013-01-26 16:52:00,23.4,7.0,30.00,NNW,338,1.8,3.5,49,0.00,CLR,,0.01,WeatherDisplay:10.37,2013-01-26 21:52:00,
2013-01-26 16:57:00,23.4,7.0,30.00,NW,315,1.1,1.1,49,0.00,CLR,,0.01,WeatherDisplay:10.37,2013-01-26 21:57:00,
2013-01-26 17:02:00,23.2,7.3,30.00,North,0,0.0,1.1,50,0.00,CLR,,0.01,WeatherDisplay:10.37,2013-01-26 22:02:00,
2013-01-26 17:07:00,22.6,6.8,30.00,WSW,248,0.2,1.1,50,0.00,CLR,,0.01,WeatherDisplay:10.37,2013-01-26 22:07:00,
2013-01-26 17:12:00,22.3,6.4,30.01,WNW,292,1.1,2.3,50,0.00,CLR,,0.01,WeatherDisplay:10.37,2013-01-26 22:12:00,
2013-01-26 17:17:00,22.1,6.7,30.01,NW,315,0.2,0.2,51,0.00,CLR,,0.01,WeatherDisplay:10.37,2013-01-26 22:17:00,
2013-01-26 17:22:00,21.9,6.5,30.01,WNW,292,0.7,1.1,51,0.00,CLR,,0.01,WeatherDisplay:10.37,2013-01-26 22:22:00,
2013-01-26 17:27:00,21.7,6.4,30.01,WNW,292,0.9,0.9,51,0.00,CLR,,0.01,WeatherDisplay:10.37,2013-01-26 22:27:00,
2013-01-26 17:32:00,21.6,6.2,30.01,West,270,0.7,0.7,51,0.00,CLR,,0.01,WeatherDisplay:10.37,2013-01-26 22:32:00,
2013-01-26 17:37:00,21.4,6.0,30.01,WNW,292,4.3,4.3,51,0.00,CLR,,0.01,WeatherDisplay:10.37,2013-01-26 22:37:00,
2013-01-26 17:42:00,21.4,5.6,30.01,NNW,338,0.2,2.3,50,0.00,CLR,,0.01,WeatherDisplay:10.37,2013-01-26 22:42:00,
2013-01-26 17:47:00,21.4,5.6,30.02,NNW,338,0.5,2.3,50,0.00,CLR,,0.01,WeatherDisplay:10.37,2013-01-26 22:47:00,
2013-01-26 17:52:00,21.4,5.2,30.02,WSW,248,0.5,0.5,49,0.00,CLR,,0.01,WeatherDisplay:10.37,2013-01-26 22:52:00,
2013-01-26 17:57:00,21.2,5.0,30.02,WSW,248,0.7,2.3,49,0.00,CLR,,0.01,WeatherDisplay:10.37,2013-01-26 22:57:00,
2013-01-26 18:02:00,21.0,4.8,30.02,North,0,0.7,1.1,49,0.00,CLR,,0.01,WeatherDisplay:10.37,2013-01-26 23:02:00,
2013-01-26 18:07:00,21.0,4.8,30.02,NW,315,0.5,0.5,49,0.00,CLR,,0.01,WeatherDisplay:10.37,2013-01-26 23:07:00,
2013-01-26 18:12:00,20.8,4.7,30.02,NW,315,1.6,1.6,49,0.00,CLR,,0.01,WeatherDisplay:10.37,2013-01-26 23:12:00,
2013-01-26 18:17:00,20.8,4.2,30.03,NNW,338,1.6,2.3,48,0.00,CLR,,0.01,WeatherDisplay:10.37,2013-01-26 23:17:00,
2013-01-26 18:22:00,20.8,4.2,30.03,WNW,292,0.7,2.3,48,0.00,CLR,,0.01,WeatherDisplay:10.37,2013-01-26 23:22:00,
2013-01-26 18:27:00,20.8,2.8,30.03,NW,315,1.4,1.4,45,0.00,CLR,,0.01,WeatherDisplay:10.37,2013-01-26 23:27:00,
2013-01-26 18:32:00,20.8,4.2,30.03,NW,315,1.8,3.5,48,0.00,CLR,,0.01,WeatherDisplay:10.37,2013-01-26 23:32:00,
2013-01-26 18:37:00,20.5,3.4,30.03,SW,225,1.1,3.5,47,0.00,CLR,,0.01,WeatherDisplay:10.37,2013-01-26 23:37:00,
2013-01-26 18:42:00,20.3,3.2,30.03,SSW,202,2.4,2.4,47,0.00,CLR,,0.01,WeatherDisplay:10.37,2013-01-26 23:42:00,
2013-01-26 18:47:00,20.1,2.6,30.04,West,270,1.4,4.6,46,0.00,CLR,,0.01,WeatherDisplay:10.37,2013-01-26 23:47:00,
2013-01-26 18:52:00,20.1,2.1,30.04,WNW,292,0.5,4.6,45,0.00,CLR,,0.01,WeatherDisplay:10.37,2013-01-26 23:52:00,
2013-01-26 18:57:00,20.1,2.1,30.04,West,270,0.5,2.3,45,0.00,CLR,,0.01,WeatherDisplay:10.37,2013-01-26 23:57:00,
2013-01-26 19:02:00,19.9,2.9,30.05,West,270,1.1,1.1,47,0.00,CLR,,0.01,WeatherDisplay:10.37,2013-01-27 00:02:00,
2013-01-26 19:07:00,19.6,3.0,30.05,West,270,2.2,4.6,48,0.00,CLR,,0.01,WeatherDisplay:10.37,2013-01-27 00:07:00,
2013-01-26 19:12:00,19.6,2.6,30.05,West,270,0.5,1.1,47,0.00,CLR,,0.01,WeatherDisplay:10.37,2013-01-27 00:12:00,
2013-01-26 19:17:00,19.8,2.8,30.05,North,0,1.8,2.3,47,0.00,CLR,,0.01,WeatherDisplay:10.37,2013-01-27 00:17:00,
2013-01-26 19:22:00,19.8,2.3,30.05,NNW,338,2.4,2.4,46,0.00,CLR,,0.01,WeatherDisplay:10.37,2013-01-27 00:22:00,
2013-01-26 19:27:00,20.1,1.7,30.05,NW,315,3.8,3.8,44,0.00,CLR,,0.01,WeatherDisplay:10.37,2013-01-27 00:27:00,
2013-01-26 19:32:00,20.3,1.8,30.05,West,270,0.5,1.1,44,0.00,CLR,,0.01,WeatherDisplay:10.37,2013-01-27 00:32:00,
2013-01-26 19:37:00,20.5,2.5,30.05,SSW,202,0.5,1.1,45,0.00,CLR,,0.01,WeatherDisplay:10.37,2013-01-27 00:37:00,
2013-01-26 19:42:00,20.5,2.0,30.06,WSW,248,2.4,2.4,44,0.00,CLR,,0.01,WeatherDisplay:10.37,2013-01-27 00:42:00,
2013-01-26 19:47:00,20.5,2.5,30.06,WNW,292,2.6,2.6,45,0.00,CLR,,0.01,WeatherDisplay:10.37,2013-01-27 00:47:00,
2013-01-26 19:52:00,20.5,2.0,30.06,WNW,292,1.8,1.8,44,0.00,CLR,,0.01,WeatherDisplay:10.37,2013-01-27 00:52:00,
2013-01-26 19:57:00,20.5,2.0,30.07,NW,315,1.1,1.1,44,0.00,CLR,,0.01,WeatherDisplay:10.37,2013-01-27 00:57:00,
2013-01-26 20:02:00,20.5,2.0,30.06,West,270,0.2,1.1,44,0.00,CLR,,0.01,WeatherDisplay:10.37,2013-01-27 01:02:00,
2013-01-26 20:07:00,20.5,2.0,30.06,West,270,0.0,1.1,44,0.00,CLR,,0.01,WeatherDisplay:10.37,2013-01-27 01:07:00,
2013-01-26 20:12:00,20.5,2.0,30.07,NW,315,1.1,3.5,44,0.00,CLR,,0.01,WeatherDisplay:10.37,2013-01-27 01:12:00,
2013-01-26 20:17:00,20.5,2.5,30.07,West,270,0.5,8.1,45,0.00,CLR,,0.01,WeatherDisplay:10.37,2013-01-27 01:17:00,
2013-01-26 20:22:00,20.3,1.8,30.07,WNW,292,4.0,9.2,44,0.00,CLR,,0.01,WeatherDisplay:10.37,2013-01-27 01:22:00,
2013-01-26 20:27:00,20.3,1.3,30.07,WNW,292,1.8,2.3,43,0.00,CLR,,0.01,WeatherDisplay:10.37,2013-01-27 01:27:00,
2013-01-26 20:32:00,20.1,1.2,30.07,WSW,248,2.4,3.5,43,0.00,CLR,,0.01,WeatherDisplay:10.37,2013-01-27 01:32:00,
2013-01-26 20:37:00,20.1,1.2,30.07,SW,225,0.5,2.3,43,0.00,CLR,,0.01,WeatherDisplay:10.37,2013-01-27 01:37:00,
2013-01-26 20:42:00,19.9,1.0,30.07,NW,315,5.9,6.9,43,0.00,CLR,,0.01,WeatherDisplay:10.37,2013-01-27 01:42:00,
2013-01-26 20:47:00,19.8,0.8,30.07,NNE,22,0.5,2.3,43,0.00,CLR,,0.01,WeatherDisplay:10.37,2013-01-27 01:47:00,
2013-01-26 20:52:00,19.8,0.8,30.08,West,270,1.4,2.3,43,0.00,CLR,,0.01,WeatherDisplay:10.37,2013-01-27 01:52:00,
2013-01-26 20:57:00,19.6,-0.3,30.08,NW,315,1.8,5.8,41,0.00,CLR,,0.01,WeatherDisplay:10.37,2013-01-27 01:57:00,
2013-01-26 21:02:00,19.4,-0.5,30.08,NW,315,3.3,3.3,41,0.00,CLR,,0.01,WeatherDisplay:10.37,2013-01-27 02:02:00,
2013-01-26 21:07:00,19.2,-0.7,30.08,NNW,338,0.7,2.3,41,0.00,CLR,,0.01,WeatherDisplay:10.37,2013-01-27 02:07:00,
2013-01-26 21:12:00,19.0,-1.4,30.08,WNW,292,3.3,4.6,40,0.00,CLR,,0.01,WeatherDisplay:10.37,2013-01-27 02:12:00,
2013-01-26 21:17:00,18.7,-2.2,30.09,WSW,248,0.5,2.3,39,0.00,CLR,,0.01,WeatherDisplay:10.37,2013-01-27 02:17:00,
2013-01-26 21:22:00,18.5,-2.4,30.09,WNW,292,2.2,4.6,39,0.00,CLR,,0.01,WeatherDisplay:10.37,2013-01-27 02:22:00,
2013-01-26 21:27:00,18.3,-2.5,30.09,WNW,292,0.7,6.9,39,0.00,CLR,,0.01,WeatherDisplay:10.37,2013-01-27 02:27:00,
2013-01-26 21:32:00,18.1,-2.2,30.09,NW,315,1.1,4.6,40,0.00,CLR,,0.01,WeatherDisplay:10.37,2013-01-27 02:32:00,
2013-01-26 21:37:00,18.1,-2.2,30.09,West,270,2.2,2.2,40,0.00,CLR,,0.01,WeatherDisplay:10.37,2013-01-27 02:37:00,
2013-01-26 21:42:00,17.8,-2.5,30.09,WSW,248,2.0,4.6,40,0.00,CLR,,0.01,WeatherDisplay:10.37,2013-01-27 02:42:00,
2013-01-26 21:47:00,17.8,-2.0,30.10,North,0,4.9,4.9,41,0.00,CLR,,0.01,WeatherDisplay:10.37,2013-01-27 02:47:00,
2013-01-26 21:52:00,17.6,-2.1,30.10,North,0,2.6,9.2,41,0.00,CLR,,0.01,WeatherDisplay:10.37,2013-01-27 02:52:00,
2013-01-26 21:57:00,17.6,-2.1,30.10,NNW,338,3.1,3.1,41,0.00,CLR,,0.01,WeatherDisplay:10.37,2013-01-27 02:57:00,
2013-01-26 22:02:00,17.2,-2.5,30.11,NNW,338,1.4,5.8,41,0.00,CLR,,0.01,WeatherDisplay:10.37,2013-01-27 03:02:00,
2013-01-26 22:07:00,17.1,-2.6,30.11,NNW,338,1.8,2.3,41,0.00,CLR,,0.01,WeatherDisplay:10.37,2013-01-27 03:07:00,
2013-01-26 22:12:00,17.1,-2.6,30.11,SW,225,4.0,4.0,41,0.00,CLR,,0.01,WeatherDisplay:10.37,2013-01-27 03:12:00,
2013-01-26 22:17:00,16.9,-2.3,30.11,WSW,248,0.7,2.3,42,0.00,CLR,,0.01,WeatherDisplay:10.37,2013-01-27 03:17:00,
2013-01-26 22:22:00,16.9,-2.3,30.11,SW,225,0.5,6.9,42,0.00,CLR,,0.01,WeatherDisplay:10.37,2013-01-27 03:22:00,
2013-01-26 22:27:00,16.7,-2.5,30.12,NNW,338,1.4,1.4,42,0.00,CLR,,0.01,WeatherDisplay:10.37,2013-01-27 03:27:00,
2013-01-26 22:32:00,16.5,-2.1,30.12,NNW,338,5.4,5.4,43,0.00,CLR,,0.01,WeatherDisplay:10.37,2013-01-27 03:32:00,
2013-01-26 22:37:00,16.3,-1.8,30.12,SW,225,1.1,2.3,44,0.00,CLR,,0.01,WeatherDisplay:10.37,2013-01-27 03:37:00,
2013-01-26 22:42:00,16.2,-2.5,30.12,West,270,1.1,6.9,43,0.00,CLR,,0.01,WeatherDisplay:10.37,2013-01-27 03:42:00,
2013-01-26 22:47:00,16.3,-1.8,30.13,WNW,292,1.6,5.8,44,0.00,CLR,,0.01,WeatherDisplay:10.37,2013-01-27 03:47:00,
2013-01-26 22:52:00,16.3,-1.8,30.13,WNW,292,0.7,2.3,44,0.00,CLR,,0.01,WeatherDisplay:10.37,2013-01-27 03:52:00,
2013-01-26 22:57:00,16.2,-1.5,30.13,WNW,292,6.2,6.2,45,0.00,CLR,,0.01,WeatherDisplay:10.37,2013-01-27 03:57:00,
2013-01-26 23:02:00,16.2,-2.0,30.13,WNW,292,0.5,4.6,44,0.00,CLR,,0.01,WeatherDisplay:10.37,2013-01-27 04:02:00,
2013-01-26 23:07:00,16.2,-1.5,30.13,NNW,338,0.5,4.6,45,0.00,CLR,,0.01,WeatherDisplay:10.37,2013-01-27 04:07:00,
2013-01-26 23:12:00,16.0,-1.2,30.13,SW,225,0.9,5.8,46,0.00,CLR,,0.01,WeatherDisplay:10.37,2013-01-27 04:12:00,
2013-01-26 23:17:00,16.0,-1.2,30.13,NW,315,0.9,2.3,46,0.00,CLR,,0.01,WeatherDisplay:10.37,2013-01-27 04:17:00,
2013-01-26 23:22:00,16.0,-1.2,30.14,WSW,248,4.0,5.8,46,0.00,CLR,,0.01,WeatherDisplay:10.37,2013-01-27 04:22:00,
2013-01-26 23:27:00,16.0,-0.7,30.14,NW,315,4.9,5.8,47,0.00,CLR,,0.01,WeatherDisplay:10.37,2013-01-27 04:27:00,
2013-01-26 23:32:00,16.0,-0.7,30.14,NNW,338,0.7,2.3,47,0.00,CLR,,0.01,WeatherDisplay:10.37,2013-01-27 04:32:00,
2013-01-26 23:37:00,15.8,-0.5,30.14,NNW,338,1.6,8.1,48,0.00,CLR,,0.01,WeatherDisplay:10.37,2013-01-27 04:37:00,
2013-01-26 23:42:00,16.0,-0.7,30.14,NW,315,4.5,8.1,47,0.00,CLR,,0.01,WeatherDisplay:10.37,2013-01-27 04:42:00,
2013-01-26 23:47:00,15.8,-0.5,30.14,West,270,0.5,5.8,48,0.00,CLR,,0.01,WeatherDisplay:10.37,2013-01-27 04:47:00,
2013-01-26 23:52:00,15.8,-0.5,30.14,NNW,338,2.4,2.4,48,0.00,CLR,,0.01,WeatherDisplay:10.37,2013-01-27 04:52:00,
2013-01-26 23:57:00,15.6,-0.6,30.13,NW,315,2.2,6.9,48,0.00,CLR,,0.01,WeatherDisplay:10.37,2013-01-27 04:57:00,